sensor_id;sensor_type;location;lat;lon;timestamp;P1;durP1;ratioP1;P2;durP2;ratioP2
25107;SDS011;13090;53.422;7.670;2022-08-26T00:02:56;9.95;;;4.18;;
25107;SDS011;13090;53.422;7.670;2022-08-26T00:08:00;7.22;;;4.18;;
25107;SDS011;13090;53.422;7.670;2022-08-26T00:13:04;5.03;;;3.92;;
25107;SDS011;13090;53.422;7.670;2022-08-26T00:18:09;5.80;;;4.22;;
25107;SDS011;13090;53.422;7.670;2022-08-26T00:23:23;5.40;;;3.85;;
25107;SDS011;13090;53.422;7.670;2022-08-26T00:28:32;5.63;;;4.07;;
25107;SDS011;13090;53.422;7.670;2022-08-26T00:33:35;5.45;;;4.13;;
25107;SDS011;13090;53.422;7.670;2022-08-26T00:38:37;4.82;;;4.00;;
25107;SDS011;13090;53.422;7.670;2022-08-26T00:43:41;6.18;;;4.00;;
25107;SDS011;13090;53.422;7.670;2022-08-26T00:48:49;7.43;;;4.13;;
25107;SDS011;13090;53.422;7.670;2022-08-26T00:53:57;6.97;;;3.85;;
25107;SDS011;13090;53.422;7.670;2022-08-26T01:04:09;4.90;;;3.58;;
25107;SDS011;13090;53.422;7.670;2022-08-26T01:09:12;6.28;;;4.32;;
25107;SDS011;13090;53.422;7.670;2022-08-26T01:14:16;8.27;;;4.53;;
25107;SDS011;13090;53.422;7.670;2022-08-26T01:19:21;7.72;;;4.43;;
25107;SDS011;13090;53.422;7.670;2022-08-26T01:24:29;5.88;;;4.25;;
25107;SDS011;13090;53.422;7.670;2022-08-26T01:29:32;8.43;;;4.32;;
25107;SDS011;13090;53.422;7.670;2022-08-26T01:34:37;7.18;;;3.88;;
25107;SDS011;13090;53.422;7.670;2022-08-26T01:39:42;5.13;;;4.10;;
25107;SDS011;13090;53.422;7.670;2022-08-26T01:44:49;6.10;;;4.47;;
25107;SDS011;13090;53.422;7.670;2022-08-26T01:49:54;7.80;;;4.65;;
25107;SDS011;13090;53.422;7.670;2022-08-26T01:55:00;6.68;;;4.40;;
25107;SDS011;13090;53.422;7.670;2022-08-26T02:00:04;6.65;;;5.82;;
25107;SDS011;13090;53.422;7.670;2022-08-26T02:05:10;9.45;;;5.07;;
25107;SDS011;13090;53.422;7.670;2022-08-26T02:10:17;8.70;;;6.38;;
25107;SDS011;13090;53.422;7.670;2022-08-26T02:15:21;11.32;;;5.05;;
25107;SDS011;13090;53.422;7.670;2022-08-26T02:20:23;17.15;;;6.25;;
25107;SDS011;13090;53.422;7.670;2022-08-26T02:25:30;10.50;;;5.07;;
25107;SDS011;13090;53.422;7.670;2022-08-26T02:30:35;7.90;;;6.65;;
25107;SDS011;13090;53.422;7.670;2022-08-26T02:35:40;7.07;;;5.45;;
25107;SDS011;13090;53.422;7.670;2022-08-26T02:40:44;8.20;;;5.95;;
25107;SDS011;13090;53.422;7.670;2022-08-26T02:45:48;9.02;;;5.45;;
25107;SDS011;13090;53.422;7.670;2022-08-26T02:50:51;10.30;;;6.03;;
25107;SDS011;13090;53.422;7.670;2022-08-26T02:55:54;8.93;;;6.72;;
25107;SDS011;13090;53.422;7.670;2022-08-26T03:01:00;8.50;;;5.38;;
25107;SDS011;13090;53.422;7.670;2022-08-26T03:06:05;10.80;;;6.55;;
25107;SDS011;13090;53.422;7.670;2022-08-26T03:11:10;10.40;;;6.47;;
25107;SDS011;13090;53.422;7.670;2022-08-26T03:16:14;7.97;;;5.68;;
25107;SDS011;13090;53.422;7.670;2022-08-26T03:21:17;6.25;;;4.88;;
25107;SDS011;13090;53.422;7.670;2022-08-26T03:26:21;8.32;;;5.30;;
25107;SDS011;13090;53.422;7.670;2022-08-26T03:31:24;8.93;;;5.50;;
25107;SDS011;13090;53.422;7.670;2022-08-26T03:36:26;6.15;;;5.22;;
25107;SDS011;13090;53.422;7.670;2022-08-26T03:41:31;5.50;;;4.72;;
25107;SDS011;13090;53.422;7.670;2022-08-26T03:46:35;9.02;;;5.00;;
25107;SDS011;13090;53.422;7.670;2022-08-26T03:51:38;8.20;;;5.13;;
25107;SDS011;13090;53.422;7.670;2022-08-26T03:56:44;6.82;;;4.90;;
25107;SDS011;13090;53.422;7.670;2022-08-26T04:01:47;8.43;;;5.75;;
25107;SDS011;13090;53.422;7.670;2022-08-26T04:06:49;10.25;;;5.30;;
25107;SDS011;13090;53.422;7.670;2022-08-26T04:11:58;6.05;;;5.00;;
25107;SDS011;13090;53.422;7.670;2022-08-26T04:17:04;9.57;;;5.53;;
25107;SDS011;13090;53.422;7.670;2022-08-26T04:22:06;7.50;;;4.90;;
25107;SDS011;13090;53.422;7.670;2022-08-26T04:27:11;8.80;;;5.20;;
25107;SDS011;13090;53.422;7.670;2022-08-26T04:38:44;11.05;;;6.53;;
25107;SDS011;13090;53.422;7.670;2022-08-26T04:44:46;10.45;;;5.93;;
25107;SDS011;13090;53.422;7.670;2022-08-26T04:50:06;10.40;;;6.35;;
25107;SDS011;13090;53.422;7.670;2022-08-26T04:55:33;10.40;;;6.43;;
25107;SDS011;13090;53.422;7.670;2022-08-26T05:24:41;11.45;;;5.30;;
25107;SDS011;13090;53.422;7.670;2022-08-26T05:29:45;7.13;;;5.47;;
25107;SDS011;13090;53.422;7.670;2022-08-26T05:34:55;13.90;;;7.70;;
25107;SDS011;13090;53.422;7.670;2022-08-26T05:40:03;29.63;;;10.40;;
25107;SDS011;13090;53.422;7.670;2022-08-26T05:45:12;29.33;;;11.15;;
25107;SDS011;13090;53.422;7.670;2022-08-26T12:50:27;11.57;;;4.10;;
25107;SDS011;13090;53.422;7.670;2022-08-26T14:41:15;11.35;;;4.22;;
25107;SDS011;13090;53.422;7.670;2022-08-26T14:46:18;7.38;;;2.13;;
25107;SDS011;13090;53.422;7.670;2022-08-26T14:51:20;3.95;;;1.63;;
25107;SDS011;13090;53.422;7.670;2022-08-26T14:56:24;7.25;;;1.67;;
25107;SDS011;13090;53.422;7.670;2022-08-26T15:01:28;3.72;;;1.45;;
25107;SDS011;13090;53.422;7.670;2022-08-26T15:06:32;3.10;;;1.60;;
25107;SDS011;13090;53.422;7.670;2022-08-26T15:11:37;6.82;;;1.85;;
25107;SDS011;13090;53.422;7.670;2022-08-26T15:16:39;2.72;;;1.48;;
25107;SDS011;13090;53.422;7.670;2022-08-26T15:21:42;3.83;;;1.38;;
25107;SDS011;13090;53.422;7.670;2022-08-26T15:26:46;3.97;;;1.58;;
25107;SDS011;13090;53.422;7.670;2022-08-26T15:31:49;5.00;;;1.60;;
25107;SDS011;13090;53.422;7.670;2022-08-26T15:36:55;7.18;;;1.40;;
25107;SDS011;13090;53.422;7.670;2022-08-26T15:41:59;3.28;;;1.40;;
25107;SDS011;13090;53.422;7.670;2022-08-26T15:47:02;2.92;;;1.48;;
25107;SDS011;13090;53.422;7.670;2022-08-26T15:52:05;2.92;;;1.20;;
25107;SDS011;13090;53.422;7.670;2022-08-26T15:57:09;3.80;;;1.42;;
25107;SDS011;13090;53.422;7.670;2022-08-26T16:02:15;2.45;;;1.10;;
25107;SDS011;13090;53.422;7.670;2022-08-26T16:07:18;3.00;;;1.35;;
25107;SDS011;13090;53.422;7.670;2022-08-26T16:12:22;4.05;;;1.52;;
25107;SDS011;13090;53.422;7.670;2022-08-26T16:17:26;12.52;;;8.68;;
25107;SDS011;13090;53.422;7.670;2022-08-26T16:22:29;5.70;;;3.25;;
25107;SDS011;13090;53.422;7.670;2022-08-26T16:27:35;4.05;;;2.33;;
25107;SDS011;13090;53.422;7.670;2022-08-26T16:32:37;3.85;;;1.70;;
25107;SDS011;13090;53.422;7.670;2022-08-26T16:37:40;4.95;;;1.98;;
25107;SDS011;13090;53.422;7.670;2022-08-26T16:42:44;4.45;;;1.45;;
25107;SDS011;13090;53.422;7.670;2022-08-26T16:47:47;5.25;;;1.65;;
25107;SDS011;13090;53.422;7.670;2022-08-26T16:52:50;4.30;;;1.67;;
25107;SDS011;13090;53.422;7.670;2022-08-26T16:57:57;5.53;;;2.13;;
25107;SDS011;13090;53.422;7.670;2022-08-26T17:03:00;3.83;;;1.55;;
25107;SDS011;13090;53.422;7.670;2022-08-26T17:08:03;4.05;;;1.40;;
25107;SDS011;13090;53.422;7.670;2022-08-26T17:13:07;5.65;;;2.22;;
25107;SDS011;13090;53.422;7.670;2022-08-26T17:18:09;8.07;;;1.75;;
25107;SDS011;13090;53.422;7.670;2022-08-26T17:23:12;3.33;;;1.40;;
25107;SDS011;13090;53.422;7.670;2022-08-26T17:28:17;9.02;;;1.60;;
25107;SDS011;13090;53.422;7.670;2022-08-26T17:33:20;6.40;;;1.50;;
25107;SDS011;13090;53.422;7.670;2022-08-26T17:38:25;6.25;;;1.83;;
25107;SDS011;13090;53.422;7.670;2022-08-26T17:43:29;6.38;;;1.77;;
25107;SDS011;13090;53.422;7.670;2022-08-26T17:48:32;6.28;;;1.90;;
25107;SDS011;13090;53.422;7.670;2022-08-26T17:53:35;5.22;;;1.73;;
25107;SDS011;13090;53.422;7.670;2022-08-26T17:58:38;5.53;;;1.55;;
25107;SDS011;13090;53.422;7.670;2022-08-26T18:03:52;4.90;;;1.38;;
25107;SDS011;13090;53.422;7.670;2022-08-26T18:09:01;7.25;;;2.80;;
25107;SDS011;13090;53.422;7.670;2022-08-26T18:14:06;8.63;;;2.00;;
25107;SDS011;13090;53.422;7.670;2022-08-26T18:19:08;7.55;;;2.17;;
25107;SDS011;13090;53.422;7.670;2022-08-26T18:24:10;15.45;;;8.57;;
25107;SDS011;13090;53.422;7.670;2022-08-26T18:29:17;7.35;;;3.72;;
25107;SDS011;13090;53.422;7.670;2022-08-26T18:34:20;6.65;;;2.85;;
25107;SDS011;13090;53.422;7.670;2022-08-26T18:39:25;6.10;;;2.35;;
25107;SDS011;13090;53.422;7.670;2022-08-26T18:44:29;4.28;;;1.65;;
25107;SDS011;13090;53.422;7.670;2022-08-26T18:49:31;4.10;;;1.60;;
25107;SDS011;13090;53.422;7.670;2022-08-26T18:54:34;3.25;;;1.50;;
25107;SDS011;13090;53.422;7.670;2022-08-26T18:59:38;7.20;;;1.70;;
25107;SDS011;13090;53.422;7.670;2022-08-26T19:04:41;3.92;;;1.30;;
25107;SDS011;13090;53.422;7.670;2022-08-26T19:09:43;5.13;;;1.48;;
25107;SDS011;13090;53.422;7.670;2022-08-26T19:14:47;6.60;;;1.38;;
25107;SDS011;13090;53.422;7.670;2022-08-26T19:19:49;2.55;;;1.13;;
25107;SDS011;13090;53.422;7.670;2022-08-26T19:24:52;3.80;;;1.42;;
25107;SDS011;13090;53.422;7.670;2022-08-26T19:29:56;4.85;;;1.48;;
25107;SDS011;13090;53.422;7.670;2022-08-26T19:34:59;3.45;;;1.45;;
25107;SDS011;13090;53.422;7.670;2022-08-26T19:40:02;4.28;;;1.33;;
25107;SDS011;13090;53.422;7.670;2022-08-26T19:45:08;3.00;;;1.20;;
25107;SDS011;13090;53.422;7.670;2022-08-26T19:50:26;3.72;;;1.05;;
25107;SDS011;13090;53.422;7.670;2022-08-26T19:55:30;3.33;;;1.40;;
25107;SDS011;13090;53.422;7.670;2022-08-26T20:00:34;4.68;;;1.25;;
25107;SDS011;13090;53.422;7.670;2022-08-26T20:05:37;3.22;;;1.15;;
25107;SDS011;13090;53.422;7.670;2022-08-26T20:10:40;6.13;;;1.50;;
25107;SDS011;13090;53.422;7.670;2022-08-26T20:15:45;2.03;;;1.27;;
25107;SDS011;13090;53.422;7.670;2022-08-26T20:20:47;4.55;;;1.20;;
25107;SDS011;13090;53.422;7.670;2022-08-26T20:25:50;5.80;;;1.40;;
25107;SDS011;13090;53.422;7.670;2022-08-26T20:30:56;3.58;;;1.15;;
25107;SDS011;13090;53.422;7.670;2022-08-26T20:35:59;3.40;;;1.42;;
25107;SDS011;13090;53.422;7.670;2022-08-26T20:41:08;4.10;;;1.00;;
25107;SDS011;13090;53.422;7.670;2022-08-26T20:46:14;6.18;;;2.42;;
25107;SDS011;13090;53.422;7.670;2022-08-26T20:51:20;4.50;;;1.27;;
25107;SDS011;13090;53.422;7.670;2022-08-26T20:56:23;4.50;;;1.27;;
25107;SDS011;13090;53.422;7.670;2022-08-26T21:01:31;2.92;;;0.93;;
25107;SDS011;13090;53.422;7.670;2022-08-26T21:06:37;3.60;;;1.70;;
25107;SDS011;13090;53.422;7.670;2022-08-26T21:11:51;2.47;;;1.10;;
25107;SDS011;13090;53.422;7.670;2022-08-26T21:17:07;5.03;;;1.00;;
25107;SDS011;13090;53.422;7.670;2022-08-26T21:22:12;2.60;;;0.90;;
25107;SDS011;13090;53.422;7.670;2022-08-26T21:27:15;4.10;;;1.00;;
25107;SDS011;13090;53.422;7.670;2022-08-26T21:32:28;1.70;;;0.90;;
25107;SDS011;13090;53.422;7.670;2022-08-26T21:37:33;2.10;;;0.80;;
25107;SDS011;13090;53.422;7.670;2022-08-26T21:42:36;3.22;;;1.10;;
25107;SDS011;13090;53.422;7.670;2022-08-26T21:47:40;2.72;;;0.98;;
25107;SDS011;13090;53.422;7.670;2022-08-26T21:52:42;2.53;;;0.70;;
25107;SDS011;13090;53.422;7.670;2022-08-26T21:57:44;3.90;;;1.88;;
25107;SDS011;13090;53.422;7.670;2022-08-26T22:02:49;6.00;;;1.77;;
25107;SDS011;13090;53.422;7.670;2022-08-26T22:07:51;3.55;;;1.40;;
25107;SDS011;13090;53.422;7.670;2022-08-26T22:12:54;2.72;;;1.30;;
25107;SDS011;13090;53.422;7.670;2022-08-26T22:30:05;2.50;;;1.17;;
25107;SDS011;13090;53.422;7.670;2022-08-26T22:35:12;3.38;;;1.35;;
25107;SDS011;13090;53.422;7.670;2022-08-26T22:40:29;1.88;;;0.73;;
25107;SDS011;13090;53.422;7.670;2022-08-26T22:45:33;3.38;;;0.98;;
25107;SDS011;13090;53.422;7.670;2022-08-26T22:50:40;5.38;;;1.25;;
25107;SDS011;13090;53.422;7.670;2022-08-26T22:55:43;9.98;;;2.45;;
25107;SDS011;13090;53.422;7.670;2022-08-26T23:00:47;5.43;;;1.63;;
25107;SDS011;13090;53.422;7.670;2022-08-26T23:05:51;3.65;;;1.70;;
25107;SDS011;13090;53.422;7.670;2022-08-26T23:10:55;6.55;;;2.30;;
25107;SDS011;13090;53.422;7.670;2022-08-26T23:16:02;4.20;;;1.55;;
25107;SDS011;13090;53.422;7.670;2022-08-26T23:21:07;2.97;;;1.52;;
25107;SDS011;13090;53.422;7.670;2022-08-26T23:26:10;7.97;;;3.67;;
25107;SDS011;13090;53.422;7.670;2022-08-26T23:31:19;6.15;;;1.60;;
25107;SDS011;13090;53.422;7.670;2022-08-26T23:36:22;2.40;;;1.00;;
25107;SDS011;13090;53.422;7.670;2022-08-26T23:41:25;5.70;;;2.45;;
25107;SDS011;13090;53.422;7.670;2022-08-26T23:46:29;1.77;;;1.10;;
25107;SDS011;13090;53.422;7.670;2022-08-26T23:51:32;4.28;;;1.35;;
25107;SDS011;13090;53.422;7.670;2022-08-26T23:56:34;3.03;;;1.73;;
